Flip — WI7115 — position and weather

sailwx.info

Track history (hours):
 
Tides and Currents Weather Stations Pressure Air Temp Water Temp Dewpoint Dewpoint Depression Visibility Wind Speed Wind Dir Waves Ship Positions

Oceanographic research ship Flip (USA)

Detailed information on ship capabilities available from University of Delaware's Ocean Information Center.

Owner: REGENTS OF THE UNIVERSITY OF CALIFORNIA, OAKLAND, CA. More information available from US FCC via Universal Licensing System and Coast Guard Vessel Documentation Center.

Last reported at 2017-Apr-11 18:40 UTC. Time now 2017-May-26 07:16 UTC.
Position N 32°42' W 117°14'.
Warning: this ship's position is 44 days out of date.

Length 124 m; draft 14 m.

Type: Military. MMSI: 338040561.

Date/timePositionNaut miles runAvg speedWind from/ knotsBaromVisibWave heightAir tempDewpointWater temp
2017-Apr-11 18:40N 32°42' W 117°14'0 0.0
2017-Apr-11 18:30N 32°42' W 117°14'0 0.0
2017-Apr-11 18:00N 32°42' W 117°14'0 0.0
2017-Apr-11 17:31N 32°42' W 117°14'0 0.3
2017-Apr-11 17:00N 32°42' W 117°14'1 1.3
2017-Apr-11 16:30N 32°42' W 117°14'3 5.6
2017-Apr-11 16:01N 32°39' W 117°14'2 4.7
2017-Apr-11 15:30N 32°37' W 117°15'6 5.1
2017-Apr-11 14:22N 32°39' W 117°21'6 6.9
2017-Apr-11 13:31N 32°41' W 117°28'3 6.4
2017-Apr-11 13:01N 32°42' W 117°32'3 6.2
2017-Apr-11 12:31N 32°43' W 117°35'3 6.3
2017-Apr-11 12:00N 32°44' W 117°38'3 6.2
2017-Apr-11 11:30N 32°46' W 117°42'3 6.2
2017-Apr-11 11:00N 32°47' W 117°45'3 6.2
2017-Apr-11 10:30N 32°48' W 117°49'3 6.3
2017-Apr-11 10:00N 32°49' W 117°52'3 6.4
2017-Apr-11 09:30N 32°50' W 117°56'3 6.0
2017-Apr-11 09:00N 32°51' W 117°59'1 1.8
2017-Apr-11 08:14N 32°52' W 118°00'0 0.1
2017-Apr-11 07:44N 32°52' W 118°00'0 0.0
2017-Apr-11 07:20N 32°52' W 118°00'0 0.1
2017-Apr-11 06:59N 32°52' W 118°00'0 0.2
2017-Apr-11 06:29N 32°52' W 118°00'2 4.8
2017-Apr-11 06:01N 32°53' W 118°03'3 5.2
2017-Apr-11 05:30N 32°54' W 118°06'3 5.4
2017-Apr-11 05:00N 32°56' W 118°09'3 5.6
2017-Apr-11 04:30N 32°57' W 118°12'3 5.5
2017-Apr-11 04:00N 32°58' W 118°15'3 5.3
2017-Apr-11 03:31N 32°59' W 118°18'3 5.1
2017-Apr-11 03:01N 32°60' W 118°20'3 5.2
2017-Apr-11 02:30N 33°01' W 118°23'3 5.1
2017-Apr-11 02:00N 33°02' W 118°26'3 5.1
2017-Apr-11 01:30N 33°03' W 118°29'2 5.0
2017-Apr-11 01:00N 33°04' W 118°31'3 5.5
2017-Apr-11 00:30N 33°05' W 118°34'3 6.0
2017-Apr-11 00:00N 33°06' W 118°38'6 5.8
2017-Apr-10 22:59N 33°07' W 118°45'3 5.5
2017-Apr-10 22:25N 33°08' W 118°48'3 5.6
2017-Apr-10 21:56N 33°08' W 118°52'5 1.4
2017-Apr-10 18:17N 33°10' W 118°57'0 0.3
2017-Apr-10 17:57N 33°10' W 118°57'0 0.1
2017-Apr-10 17:28N 33°10' W 118°57'0 0.2
2017-Apr-10 17:00N 33°10' W 118°57'0 0.2
2017-Apr-10 16:25N 33°10' W 118°57'1 0.0
2017-Apr-10 01:25N 33°10' W 118°56'0 0.0
2017-Apr-10 00:59N 33°10' W 118°56'0 0.0
2017-Apr-10 00:29N 33°10' W 118°56'0 0.0
2017-Apr-09 23:53N 33°10' W 118°56'0 0.0
2017-Apr-09 23:29N 33°10' W 118°56'0 0.0
2017-Apr-09 00:39N 33°10' W 118°56'0 0.0
2017-Apr-09 00:18N 33°10' W 118°56'0 0.0
2017-Apr-08 01:59N 33°10' W 118°56'0 0.0
2017-Apr-08 01:25N 33°10' W 118°56'0 0.0
2017-Apr-08 00:57N 33°10' W 118°56'0 0.0
2017-Apr-08 00:30N 33°10' W 118°56'0 0.0
2017-Apr-07 23:18N 33°10' W 118°56'0 0.0
2017-Apr-07 22:57N 33°10' W 118°56'0 0.0
2017-Apr-07 22:20N 33°10' W 118°56'0 0.0
2017-Apr-07 21:56N 33°10' W 118°56'0 0.0
2017-Apr-07 21:25N 33°10' W 118°56'0 0.0
2017-Apr-07 20:47N 33°10' W 118°56'0 0.0
2017-Apr-07 19:19N 33°10' W 118°56'0 0.0
2017-Apr-07 18:37N 33°10' W 118°56'0 0.0
2017-Apr-07 17:43N 33°10' W 118°56'0 0.0
2017-Apr-07 17:30N 33°10' W 118°56'0 0.0
2017-Apr-07 16:58N 33°10' W 118°56'0 0.0
2017-Apr-07 16:24N 33°10' W 118°56'0 0.0
2017-Apr-07 01:06N 33°10' W 118°56'0 0.0
2017-Apr-07 00:56N 33°10' W 118°56'0 0.0
2017-Apr-07 00:30N 33°10' W 118°56'0 0.0
2017-Apr-06 22:41N 33°10' W 118°56'0 0.0
2017-Apr-06 22:26N 33°10' W 118°56'0 0.0
2017-Apr-06 21:54N 33°10' W 118°56'0 0.0
2017-Apr-06 21:30N 33°10' W 118°56'0 0.0
2017-Apr-06 20:59N 33°10' W 118°56'0 0.0
2017-Apr-06 20:27N 33°10' W 118°56'0 0.0
2017-Apr-06 20:00N 33°10' W 118°56'0 0.0
2017-Apr-06 19:24N 33°10' W 118°56'0 0.0
2017-Apr-06 19:00N 33°10' W 118°56'0 0.0
2017-Apr-06 18:30N 33°10' W 118°56'0 0.0
2017-Apr-05 22:15N 33°10' W 118°56'0 0.0
2017-Apr-05 22:00N 33°10' W 118°56'0 0.0
2017-Apr-05 21:30N 33°10' W 118°56'0 0.0
2017-Apr-05 21:00N 33°10' W 118°56'0 0.0
2017-Apr-05 20:18N 33°10' W 118°56'0 0.0
2017-Apr-05 19:57N 33°10' W 118°56'0 0.0
2017-Apr-05 19:27N 33°10' W 118°56'0 0.0
2017-Apr-05 18:54N 33°10' W 118°56'0 0.0
2017-Apr-05 17:09N 33°10' W 118°56'0 0.0
2017-Apr-05 16:46N 33°10' W 118°56'0 0.0
2017-Apr-05 16:24N 33°10' W 118°56'0 0.0
2017-Apr-05 03:43N 33°10' W 118°56'0 0.0
2017-Apr-05 02:03N 33°10' W 118°56'0 0.0
2017-Apr-05 02:00N 33°10' W 118°56'0 0.0
2017-Apr-05 01:24N 33°10' W 118°56'0 0.0
2017-Apr-04 23:59N 33°10' W 118°56'0 0.0
2017-Apr-04 23:05N 33°10' W 118°56'0 0.0
2017-Apr-04 21:23N 33°10' W 118°56'0 0.0
2017-Apr-04 20:59N 33°10' W 118°56'0 0.0
2017-Apr-04 19:53N 33°10' W 118°56'0 0.0
2017-Apr-04 19:29N 33°10' W 118°56'0 0.0
2017-Apr-04 18:56N 33°10' W 118°56'0 0.0
2017-Apr-04 18:15N 33°10' W 118°56'0 0.0
2017-Apr-04 17:47N 33°10' W 118°56'0 0.0
2017-Apr-04 17:29N 33°10' W 118°56'0 0.0
2017-Apr-04 12:45N 33°10' W 118°56'0 0.0
2017-Apr-04 12:30N 33°10' W 118°56'0 0.0
2017-Apr-04 11:14N 33°10' W 118°56'0 0.0
2017-Apr-04 10:50N 33°10' W 118°56'0 0.0
2017-Apr-04 00:08N 33°10' W 118°56'0 0.0
2017-Apr-03 23:56N 33°10' W 118°56'0 0.0
2017-Apr-03 20:56N 33°10' W 118°56'0 0.0
2017-Apr-03 20:20N 33°10' W 118°56'0 0.0
2017-Apr-03 19:50N 33°10' W 118°56'0 0.0
2017-Apr-03 19:14N 33°10' W 118°56'0 0.0
2017-Apr-03 18:26N 33°10' W 118°56'0 0.0
2017-Apr-03 17:56N 33°10' W 118°56'0 0.0
2017-Apr-03 17:20N 33°10' W 118°56'0 0.0
2017-Apr-03 16:55N 33°10' W 118°56'0 0.0
2017-Apr-03 16:18N 33°10' W 118°56'0 0.0
2017-Apr-03 15:49N 33°10' W 118°56'0 0.0
2017-Apr-03 15:22N 33°10' W 118°56'0 0.0
2017-Apr-03 14:56N 33°10' W 118°56'0 0.0
2017-Apr-03 14:29N 33°10' W 118°56'0 0.0
2017-Apr-03 11:34N 33°10' W 118°56'0 0.0
2017-Apr-03 11:17N 33°10' W 118°56'0 0.0
2017-Apr-03 10:54N 33°10' W 118°56'0 0.0
2017-Apr-02 23:35N 33°10' W 118°56'0 0.1
2017-Apr-02 23:29N 33°10' W 118°56'0 0.0
2017-Apr-02 22:09N 33°10' W 118°56'0 0.0
2017-Apr-02 21:45N 33°10' W 118°56'0 0.0
2017-Apr-02 21:27N 33°10' W 118°56'0 0.0
2017-Apr-02 20:57N 33°10' W 118°56'0 0.0
2017-Apr-02 20:27N 33°10' W 118°56'0 0.0
2017-Apr-02 20:00N 33°10' W 118°56'0 0.0
2017-Apr-02 19:30N 33°10' W 118°56'0 0.0
2017-Apr-02 18:59N 33°10' W 118°56'0 0.0
2017-Apr-02 18:29N 33°10' W 118°56'0 0.0
2017-Apr-02 17:08N 33°10' W 118°56'0 0.0
2017-Apr-02 16:43N 33°10' W 118°56'0 0.0
2017-Apr-02 16:30N 33°10' W 118°56'0 0.0
2017-Apr-02 15:59N 33°10' W 118°56'0 0.0
2017-Apr-02 00:26N 33°10' W 118°56'0 0.0
2017-Apr-02 00:00N 33°10' W 118°56'0 0.0
2017-Apr-01 23:24N 33°10' W 118°56'0 0.0
2017-Apr-01 23:00N 33°10' W 118°56'0 0.0
2017-Apr-01 21:30N 33°10' W 118°56'0 0.0
2017-Apr-01 20:36N 33°10' W 118°56'0 0.0
2017-Apr-01 20:24N 33°10' W 118°56'0 0.0
2017-Apr-01 19:54N 33°10' W 118°56'0 0.0
2017-Apr-01 19:18N 33°10' W 118°56'0 0.0
2017-Apr-01 18:54N 33°10' W 118°56'  
Track history (hours):
 
Tides and Currents Weather Stations Pressure Air Temp Water Temp Dewpoint Dewpoint Depression Visibility Wind Speed Wind Dir Waves Ship Positions

Oceanographic research ship Flip (USA)

Detailed information on ship capabilities available from University of Delaware's Ocean Information Center.

Owner: REGENTS OF THE UNIVERSITY OF CALIFORNIA, OAKLAND, CA. More information available from US FCC via Universal Licensing System and Coast Guard Vessel Documentation Center.

Last reported at 2017-Apr-11 18:40 UTC. Time now 2017-May-26 07:16 UTC.
Position N 32°42' W 117°14'.
Warning: this ship's position is 44 days out of date.

Length 124 m; draft 14 m.

Type: Military. MMSI: 338040561.

Date/timePositionNaut miles runAvg speedWind from/ knotsBaromVisibWave heightAir tempDewpointWater temp
2017-Apr-11 18:40N 32°42' W 117°14'0 0.0
2017-Apr-11 18:30N 32°42' W 117°14'0 0.0
2017-Apr-11 18:00N 32°42' W 117°14'0 0.0
2017-Apr-11 17:31N 32°42' W 117°14'0 0.3
2017-Apr-11 17:00N 32°42' W 117°14'1 1.3
2017-Apr-11 16:30N 32°42' W 117°14'3 5.6
2017-Apr-11 16:01N 32°39' W 117°14'2 4.7
2017-Apr-11 15:30N 32°37' W 117°15'6 5.1
2017-Apr-11 14:22N 32°39' W 117°21'6 6.9
2017-Apr-11 13:31N 32°41' W 117°28'3 6.4
2017-Apr-11 13:01N 32°42' W 117°32'3 6.2
2017-Apr-11 12:31N 32°43' W 117°35'3 6.3
2017-Apr-11 12:00N 32°44' W 117°38'3 6.2
2017-Apr-11 11:30N 32°46' W 117°42'3 6.2
2017-Apr-11 11:00N 32°47' W 117°45'3 6.2
2017-Apr-11 10:30N 32°48' W 117°49'3 6.3
2017-Apr-11 10:00N 32°49' W 117°52'3 6.4
2017-Apr-11 09:30N 32°50' W 117°56'3 6.0
2017-Apr-11 09:00N 32°51' W 117°59'1 1.8
2017-Apr-11 08:14N 32°52' W 118°00'0 0.1
2017-Apr-11 07:44N 32°52' W 118°00'0 0.0
2017-Apr-11 07:20N 32°52' W 118°00'0 0.1
2017-Apr-11 06:59N 32°52' W 118°00'0 0.2
2017-Apr-11 06:29N 32°52' W 118°00'2 4.8
2017-Apr-11 06:01N 32°53' W 118°03'3 5.2
2017-Apr-11 05:30N 32°54' W 118°06'3 5.4
2017-Apr-11 05:00N 32°56' W 118°09'3 5.6
2017-Apr-11 04:30N 32°57' W 118°12'3 5.5
2017-Apr-11 04:00N 32°58' W 118°15'3 5.3
2017-Apr-11 03:31N 32°59' W 118°18'3 5.1
2017-Apr-11 03:01N 32°60' W 118°20'3 5.2
2017-Apr-11 02:30N 33°01' W 118°23'3 5.1
2017-Apr-11 02:00N 33°02' W 118°26'3 5.1
2017-Apr-11 01:30N 33°03' W 118°29'2 5.0
2017-Apr-11 01:00N 33°04' W 118°31'3 5.5
2017-Apr-11 00:30N 33°05' W 118°34'3 6.0
2017-Apr-11 00:00N 33°06' W 118°38'6 5.8
2017-Apr-10 22:59N 33°07' W 118°45'3 5.5
2017-Apr-10 22:25N 33°08' W 118°48'3 5.6
2017-Apr-10 21:56N 33°08' W 118°52'5 1.4
2017-Apr-10 18:17N 33°10' W 118°57'0 0.3
2017-Apr-10 17:57N 33°10' W 118°57'0 0.1
2017-Apr-10 17:28N 33°10' W 118°57'0 0.2
2017-Apr-10 17:00N 33°10' W 118°57'0 0.2
2017-Apr-10 16:25N 33°10' W 118°57'1 0.0
2017-Apr-10 01:25N 33°10' W 118°56'0 0.0
2017-Apr-10 00:59N 33°10' W 118°56'0 0.0
2017-Apr-10 00:29N 33°10' W 118°56'0 0.0
2017-Apr-09 23:53N 33°10' W 118°56'0 0.0
2017-Apr-09 23:29N 33°10' W 118°56'0 0.0
2017-Apr-09 00:39N 33°10' W 118°56'0 0.0
2017-Apr-09 00:18N 33°10' W 118°56'0 0.0
2017-Apr-08 01:59N 33°10' W 118°56'0 0.0
2017-Apr-08 01:25N 33°10' W 118°56'0 0.0
2017-Apr-08 00:57N 33°10' W 118°56'0 0.0
2017-Apr-08 00:30N 33°10' W 118°56'0 0.0
2017-Apr-07 23:18N 33°10' W 118°56'0 0.0
2017-Apr-07 22:57N 33°10' W 118°56'0 0.0
2017-Apr-07 22:20N 33°10' W 118°56'0 0.0
2017-Apr-07 21:56N 33°10' W 118°56'0 0.0
2017-Apr-07 21:25N 33°10' W 118°56'0 0.0
2017-Apr-07 20:47N 33°10' W 118°56'0 0.0
2017-Apr-07 19:19N 33°10' W 118°56'0 0.0
2017-Apr-07 18:37N 33°10' W 118°56'0 0.0
2017-Apr-07 17:43N 33°10' W 118°56'0 0.0
2017-Apr-07 17:30N 33°10' W 118°56'0 0.0
2017-Apr-07 16:58N 33°10' W 118°56'0 0.0
2017-Apr-07 16:24N 33°10' W 118°56'0 0.0
2017-Apr-07 01:06N 33°10' W 118°56'0 0.0
2017-Apr-07 00:56N 33°10' W 118°56'0 0.0
2017-Apr-07 00:30N 33°10' W 118°56'0 0.0
2017-Apr-06 22:41N 33°10' W 118°56'0 0.0
2017-Apr-06 22:26N 33°10' W 118°56'0 0.0
2017-Apr-06 21:54N 33°10' W 118°56'0 0.0
2017-Apr-06 21:30N 33°10' W 118°56'0 0.0
2017-Apr-06 20:59N 33°10' W 118°56'0 0.0
2017-Apr-06 20:27N 33°10' W 118°56'0 0.0
2017-Apr-06 20:00N 33°10' W 118°56'0 0.0
2017-Apr-06 19:24N 33°10' W 118°56'0 0.0
2017-Apr-06 19:00N 33°10' W 118°56'0 0.0
2017-Apr-06 18:30N 33°10' W 118°56'0 0.0
2017-Apr-05 22:15N 33°10' W 118°56'0 0.0
2017-Apr-05 22:00N 33°10' W 118°56'0 0.0
2017-Apr-05 21:30N 33°10' W 118°56'0 0.0
2017-Apr-05 21:00N 33°10' W 118°56'0 0.0
2017-Apr-05 20:18N 33°10' W 118°56'0 0.0
2017-Apr-05 19:57N 33°10' W 118°56'0 0.0
2017-Apr-05 19:27N 33°10' W 118°56'0 0.0
2017-Apr-05 18:54N 33°10' W 118°56'0 0.0
2017-Apr-05 17:09N 33°10' W 118°56'0 0.0
2017-Apr-05 16:46N 33°10' W 118°56'0 0.0
2017-Apr-05 16:24N 33°10' W 118°56'0 0.0
2017-Apr-05 03:43N 33°10' W 118°56'0 0.0
2017-Apr-05 02:03N 33°10' W 118°56'0 0.0
2017-Apr-05 02:00N 33°10' W 118°56'0 0.0
2017-Apr-05 01:24N 33°10' W 118°56'0 0.0
2017-Apr-04 23:59N 33°10' W 118°56'0 0.0
2017-Apr-04 23:05N 33°10' W 118°56'0 0.0
2017-Apr-04 21:23N 33°10' W 118°56'0 0.0
2017-Apr-04 20:59N 33°10' W 118°56'0 0.0
2017-Apr-04 19:53N 33°10' W 118°56'0 0.0
2017-Apr-04 19:29N 33°10' W 118°56'0 0.0
2017-Apr-04 18:56N 33°10' W 118°56'0 0.0
2017-Apr-04 18:15N 33°10' W 118°56'0 0.0
2017-Apr-04 17:47N 33°10' W 118°56'0 0.0
2017-Apr-04 17:29N 33°10' W 118°56'0 0.0
2017-Apr-04 12:45N 33°10' W 118°56'0 0.0
2017-Apr-04 12:30N 33°10' W 118°56'0 0.0
2017-Apr-04 11:14N 33°10' W 118°56'0 0.0
2017-Apr-04 10:50N 33°10' W 118°56'0 0.0
2017-Apr-04 00:08N 33°10' W 118°56'0 0.0
2017-Apr-03 23:56N 33°10' W 118°56'0 0.0
2017-Apr-03 20:56N 33°10' W 118°56'0 0.0
2017-Apr-03 20:20N 33°10' W 118°56'0 0.0
2017-Apr-03 19:50N 33°10' W 118°56'0 0.0
2017-Apr-03 19:14N 33°10' W 118°56'0 0.0
2017-Apr-03 18:26N 33°10' W 118°56'0 0.0
2017-Apr-03 17:56N 33°10' W 118°56'0 0.0
2017-Apr-03 17:20N 33°10' W 118°56'0 0.0
2017-Apr-03 16:55N 33°10' W 118°56'0 0.0
2017-Apr-03 16:18N 33°10' W 118°56'0 0.0
2017-Apr-03 15:49N 33°10' W 118°56'0 0.0
2017-Apr-03 15:22N 33°10' W 118°56'0 0.0
2017-Apr-03 14:56N 33°10' W 118°56'0 0.0
2017-Apr-03 14:29N 33°10' W 118°56'0 0.0
2017-Apr-03 11:34N 33°10' W 118°56'0 0.0
2017-Apr-03 11:17N 33°10' W 118°56'0 0.0
2017-Apr-03 10:54N 33°10' W 118°56'0 0.0
2017-Apr-02 23:35N 33°10' W 118°56'0 0.1
2017-Apr-02 23:29N 33°10' W 118°56'0 0.0
2017-Apr-02 22:09N 33°10' W 118°56'0 0.0
2017-Apr-02 21:45N 33°10' W 118°56'0 0.0
2017-Apr-02 21:27N 33°10' W 118°56'0 0.0
2017-Apr-02 20:57N 33°10' W 118°56'0 0.0
2017-Apr-02 20:27N 33°10' W 118°56'0 0.0
2017-Apr-02 20:00N 33°10' W 118°56'0 0.0
2017-Apr-02 19:30N 33°10' W 118°56'0 0.0
2017-Apr-02 18:59N 33°10' W 118°56'0 0.0
2017-Apr-02 18:29N 33°10' W 118°56'0 0.0
2017-Apr-02 17:08N 33°10' W 118°56'0 0.0
2017-Apr-02 16:43N 33°10' W 118°56'0 0.0
2017-Apr-02 16:30N 33°10' W 118°56'0 0.0
2017-Apr-02 15:59N 33°10' W 118°56'0 0.0
2017-Apr-02 00:26N 33°10' W 118°56'0 0.0
2017-Apr-02 00:00N 33°10' W 118°56'0 0.0
2017-Apr-01 23:24N 33°10' W 118°56'0 0.0
2017-Apr-01 23:00N 33°10' W 118°56'0 0.0
2017-Apr-01 21:30N 33°10' W 118°56'0 0.0
2017-Apr-01 20:36N 33°10' W 118°56'0 0.0
2017-Apr-01 20:24N 33°10' W 118°56'0 0.0
2017-Apr-01 19:54N 33°10' W 118°56'0 0.0
2017-Apr-01 19:18N 33°10' W 118°56'0 0.0
2017-Apr-01 18:54N 33°10' W 118°56'  

Dump ship's entire track history